sensor_id;sensor_type;location;lat;lon;timestamp;P1;durP1;ratioP1;P2;durP2;ratioP2
4074;SDS011;2052;53.522;9.806;2023-04-25T00:01:39;11.53;;;6.40;;
4074;SDS011;2052;53.522;9.806;2023-04-25T00:04:06;10.17;;;5.93;;
4074;SDS011;2052;53.522;9.806;2023-04-25T00:06:33;13.87;;;6.23;;
4074;SDS011;2052;53.522;9.806;2023-04-25T00:09:01;11.30;;;5.97;;
4074;SDS011;2052;53.522;9.806;2023-04-25T00:11:28;10.33;;;6.07;;
4074;SDS011;2052;53.522;9.806;2023-04-25T00:13:57;15.97;;;6.40;;
4074;SDS011;2052;53.522;9.806;2023-04-25T00:16:24;15.47;;;6.67;;
4074;SDS011;2052;53.522;9.806;2023-04-25T00:18:54;16.13;;;7.27;;
4074;SDS011;2052;53.522;9.806;2023-04-25T00:21:20;27.30;;;6.17;;
4074;SDS011;2052;53.522;9.806;2023-04-25T00:23:49;18.23;;;5.73;;
4074;SDS011;2052;53.522;9.806;2023-04-25T00:26:15;11.23;;;6.37;;
4074;SDS011;2052;53.522;9.806;2023-04-25T00:28:42;21.20;;;6.93;;
4074;SDS011;2052;53.522;9.806;2023-04-25T00:31:10;23.30;;;7.60;;
4074;SDS011;2052;53.522;9.806;2023-04-25T00:33:37;22.10;;;7.13;;
4074;SDS011;2052;53.522;9.806;2023-04-25T00:36:04;15.73;;;6.43;;
4074;SDS011;2052;53.522;9.806;2023-04-25T00:38:31;14.80;;;5.57;;
4074;SDS011;2052;53.522;9.806;2023-04-25T00:40:57;24.77;;;7.37;;
4074;SDS011;2052;53.522;9.806;2023-04-25T00:43:25;26.63;;;7.00;;
4074;SDS011;2052;53.522;9.806;2023-04-25T00:45:51;18.10;;;5.80;;
4074;SDS011;2052;53.522;9.806;2023-04-25T00:48:20;15.93;;;5.50;;
4074;SDS011;2052;53.522;9.806;2023-04-25T00:50:49;25.97;;;6.17;;
4074;SDS011;2052;53.522;9.806;2023-04-25T00:53:18;16.17;;;6.23;;
4074;SDS011;2052;53.522;9.806;2023-04-25T00:55:44;14.37;;;5.70;;
4074;SDS011;2052;53.522;9.806;2023-04-25T00:58:11;25.77;;;6.20;;
4074;SDS011;2052;53.522;9.806;2023-04-25T01:00:38;19.63;;;6.43;;
4074;SDS011;2052;53.522;9.806;2023-04-25T01:03:05;19.57;;;7.03;;
4074;SDS011;2052;53.522;9.806;2023-04-25T01:05:33;17.70;;;6.20;;
4074;SDS011;2052;53.522;9.806;2023-04-25T01:08:00;16.83;;;5.93;;
4074;SDS011;2052;53.522;9.806;2023-04-25T01:10:26;36.13;;;7.00;;
4074;SDS011;2052;53.522;9.806;2023-04-25T01:12:53;21.63;;;7.10;;
4074;SDS011;2052;53.522;9.806;2023-04-25T01:15:19;16.73;;;6.47;;
4074;SDS011;2052;53.522;9.806;2023-04-25T01:17:46;20.70;;;6.50;;
4074;SDS011;2052;53.522;9.806;2023-04-25T01:20:14;24.97;;;7.60;;
4074;SDS011;2052;53.522;9.806;2023-04-25T01:22:43;23.23;;;8.10;;
4074;SDS011;2052;53.522;9.806;2023-04-25T01:25:09;20.90;;;7.07;;
4074;SDS011;2052;53.522;9.806;2023-04-25T01:27:36;27.47;;;7.63;;
4074;SDS011;2052;53.522;9.806;2023-04-25T01:30:03;24.80;;;7.70;;
4074;SDS011;2052;53.522;9.806;2023-04-25T01:32:31;30.57;;;7.83;;
4074;SDS011;2052;53.522;9.806;2023-04-25T01:35:03;42.43;;;6.67;;
4074;SDS011;2052;53.522;9.806;2023-04-25T01:37:34;20.90;;;7.50;;
4074;SDS011;2052;53.522;9.806;2023-04-25T01:40:02;22.83;;;7.03;;
4074;SDS011;2052;53.522;9.806;2023-04-25T01:42:30;27.20;;;10.30;;
4074;SDS011;2052;53.522;9.806;2023-04-25T01:44:57;19.90;;;6.00;;
4074;SDS011;2052;53.522;9.806;2023-04-25T01:47:23;22.53;;;7.37;;
4074;SDS011;2052;53.522;9.806;2023-04-25T01:49:50;24.50;;;5.83;;
4074;SDS011;2052;53.522;9.806;2023-04-25T01:52:17;19.43;;;6.90;;
4074;SDS011;2052;53.522;9.806;2023-04-25T01:54:43;23.20;;;7.10;;
4074;SDS011;2052;53.522;9.806;2023-04-25T01:57:11;24.60;;;5.90;;
4074;SDS011;2052;53.522;9.806;2023-04-25T01:59:38;32.57;;;6.83;;
4074;SDS011;2052;53.522;9.806;2023-04-25T02:02:05;25.93;;;6.83;;
4074;SDS011;2052;53.522;9.806;2023-04-25T02:04:31;24.97;;;6.63;;
4074;SDS011;2052;53.522;9.806;2023-04-25T02:06:58;27.87;;;5.77;;
4074;SDS011;2052;53.522;9.806;2023-04-25T02:09:25;25.40;;;6.07;;
4074;SDS011;2052;53.522;9.806;2023-04-25T02:11:52;26.90;;;7.60;;
4074;SDS011;2052;53.522;9.806;2023-04-25T02:14:20;28.93;;;7.00;;
4074;SDS011;2052;53.522;9.806;2023-04-25T02:16:46;29.90;;;5.80;;
4074;SDS011;2052;53.522;9.806;2023-04-25T02:19:13;17.67;;;6.60;;
4074;SDS011;2052;53.522;9.806;2023-04-25T02:21:39;25.43;;;6.57;;
4074;SDS011;2052;53.522;9.806;2023-04-25T02:24:06;24.40;;;6.20;;
4074;SDS011;2052;53.522;9.806;2023-04-25T02:26:34;22.77;;;6.37;;
4074;SDS011;2052;53.522;9.806;2023-04-25T02:29:01;20.97;;;6.20;;
4074;SDS011;2052;53.522;9.806;2023-04-25T02:31:29;24.77;;;6.20;;
4074;SDS011;2052;53.522;9.806;2023-04-25T02:33:56;26.07;;;7.20;;
4074;SDS011;2052;53.522;9.806;2023-04-25T02:36:22;19.33;;;5.73;;
4074;SDS011;2052;53.522;9.806;2023-04-25T02:38:49;18.10;;;6.43;;
4074;SDS011;2052;53.522;9.806;2023-04-25T02:41:15;10.43;;;4.70;;
4074;SDS011;2052;53.522;9.806;2023-04-25T02:43:42;16.77;;;5.83;;
4074;SDS011;2052;53.522;9.806;2023-04-25T02:46:09;19.30;;;5.40;;
4074;SDS011;2052;53.522;9.806;2023-04-25T02:48:37;22.33;;;7.30;;
4074;SDS011;2052;53.522;9.806;2023-04-25T02:51:03;30.93;;;7.67;;
4074;SDS011;2052;53.522;9.806;2023-04-25T02:53:30;28.47;;;6.77;;
4074;SDS011;2052;53.522;9.806;2023-04-25T02:55:56;17.07;;;5.70;;
4074;SDS011;2052;53.522;9.806;2023-04-25T02:58:24;25.77;;;5.23;;
4074;SDS011;2052;53.522;9.806;2023-04-25T03:00:50;15.30;;;5.20;;
4074;SDS011;2052;53.522;9.806;2023-04-25T03:03:17;17.30;;;5.13;;
4074;SDS011;2052;53.522;9.806;2023-04-25T03:05:47;20.50;;;6.53;;
4074;SDS011;2052;53.522;9.806;2023-04-25T03:08:15;22.40;;;6.57;;
4074;SDS011;2052;53.522;9.806;2023-04-25T03:10:42;17.87;;;6.73;;
4074;SDS011;2052;53.522;9.806;2023-04-25T03:13:08;13.07;;;5.17;;
4074;SDS011;2052;53.522;9.806;2023-04-25T03:15:35;24.47;;;5.90;;
4074;SDS011;2052;53.522;9.806;2023-04-25T03:18:02;15.97;;;5.60;;
4074;SDS011;2052;53.522;9.806;2023-04-25T03:20:29;33.57;;;7.03;;
4074;SDS011;2052;53.522;9.806;2023-04-25T03:22:57;19.63;;;6.83;;
4074;SDS011;2052;53.522;9.806;2023-04-25T03:25:24;24.87;;;6.47;;
4074;SDS011;2052;53.522;9.806;2023-04-25T03:27:50;23.30;;;6.03;;
4074;SDS011;2052;53.522;9.806;2023-04-25T03:30:17;25.50;;;6.63;;
4074;SDS011;2052;53.522;9.806;2023-04-25T03:32:43;33.13;;;9.07;;
4074;SDS011;2052;53.522;9.806;2023-04-25T03:35:10;19.50;;;5.97;;
4074;SDS011;2052;53.522;9.806;2023-04-25T03:37:36;29.77;;;6.50;;
4074;SDS011;2052;53.522;9.806;2023-04-25T03:40:05;11.93;;;5.30;;
4074;SDS011;2052;53.522;9.806;2023-04-25T03:42:32;15.53;;;4.83;;
4074;SDS011;2052;53.522;9.806;2023-04-25T03:44:59;15.93;;;5.20;;
4074;SDS011;2052;53.522;9.806;2023-04-25T03:47:25;16.90;;;5.70;;
4074;SDS011;2052;53.522;9.806;2023-04-25T03:49:52;29.17;;;6.20;;
4074;SDS011;2052;53.522;9.806;2023-04-25T03:52:18;17.33;;;4.40;;
4074;SDS011;2052;53.522;9.806;2023-04-25T03:54:45;16.87;;;5.80;;
4074;SDS011;2052;53.522;9.806;2023-04-25T03:57:13;32.20;;;6.17;;
4074;SDS011;2052;53.522;9.806;2023-04-25T03:59:40;20.87;;;5.70;;
4074;SDS011;2052;53.522;9.806;2023-04-25T04:02:06;27.37;;;5.57;;
4074;SDS011;2052;53.522;9.806;2023-04-25T04:04:33;21.30;;;6.07;;
4074;SDS011;2052;53.522;9.806;2023-04-25T04:06:59;14.37;;;5.13;;
4074;SDS011;2052;53.522;9.806;2023-04-25T04:09:26;27.63;;;4.80;;
4074;SDS011;2052;53.522;9.806;2023-04-25T04:11:53;15.60;;;5.20;;
4074;SDS011;2052;53.522;9.806;2023-04-25T04:14:21;17.30;;;5.03;;
4074;SDS011;2052;53.522;9.806;2023-04-25T04:16:47;20.70;;;5.17;;
4074;SDS011;2052;53.522;9.806;2023-04-25T04:19:14;32.63;;;7.90;;
4074;SDS011;2052;53.522;9.806;2023-04-25T04:21:40;22.73;;;5.23;;
4074;SDS011;2052;53.522;9.806;2023-04-25T04:24:07;26.97;;;7.37;;
4074;SDS011;2052;53.522;9.806;2023-04-25T04:26:33;19.83;;;5.30;;
4074;SDS011;2052;53.522;9.806;2023-04-25T04:29:00;15.83;;;4.47;;
4074;SDS011;2052;53.522;9.806;2023-04-25T04:31:28;22.10;;;5.00;;
4074;SDS011;2052;53.522;9.806;2023-04-25T04:33:55;18.73;;;4.57;;
4074;SDS011;2052;53.522;9.806;2023-04-25T04:36:22;15.63;;;4.70;;
4074;SDS011;2052;53.522;9.806;2023-04-25T04:38:51;13.47;;;5.23;;
4074;SDS011;2052;53.522;9.806;2023-04-25T04:41:17;19.47;;;6.27;;
4074;SDS011;2052;53.522;9.806;2023-04-25T04:43:44;17.77;;;5.43;;
4074;SDS011;2052;53.522;9.806;2023-04-25T04:46:11;13.10;;;3.97;;
4074;SDS011;2052;53.522;9.806;2023-04-25T04:48:39;16.53;;;5.03;;
4074;SDS011;2052;53.522;9.806;2023-04-25T04:51:06;15.87;;;4.80;;
4074;SDS011;2052;53.522;9.806;2023-04-25T04:53:32;14.07;;;4.60;;
4074;SDS011;2052;53.522;9.806;2023-04-25T04:55:59;31.37;;;4.77;;
4074;SDS011;2052;53.522;9.806;2023-04-25T04:58:25;22.30;;;4.70;;
4074;SDS011;2052;53.522;9.806;2023-04-25T05:00:54;23.07;;;5.17;;
4074;SDS011;2052;53.522;9.806;2023-04-25T05:03:21;17.10;;;7.07;;
4074;SDS011;2052;53.522;9.806;2023-04-25T05:05:49;12.73;;;4.43;;
4074;SDS011;2052;53.522;9.806;2023-04-25T05:08:15;15.17;;;4.20;;
4074;SDS011;2052;53.522;9.806;2023-04-25T05:10:42;18.63;;;4.30;;
4074;SDS011;2052;53.522;9.806;2023-04-25T05:13:08;21.17;;;4.93;;
4074;SDS011;2052;53.522;9.806;2023-04-25T05:15:35;21.10;;;4.47;;
4074;SDS011;2052;53.522;9.806;2023-04-25T05:18:01;21.67;;;5.67;;
4074;SDS011;2052;53.522;9.806;2023-04-25T05:20:28;12.97;;;4.23;;
4074;SDS011;2052;53.522;9.806;2023-04-25T05:22:56;25.20;;;9.90;;
4074;SDS011;2052;53.522;9.806;2023-04-25T05:25:23;14.80;;;4.60;;
4074;SDS011;2052;53.522;9.806;2023-04-25T05:27:49;19.17;;;5.07;;
4074;SDS011;2052;53.522;9.806;2023-04-25T05:30:17;25.13;;;5.30;;
4074;SDS011;2052;53.522;9.806;2023-04-25T05:32:44;10.90;;;4.00;;
4074;SDS011;2052;53.522;9.806;2023-04-25T05:35:11;9.60;;;4.47;;
4074;SDS011;2052;53.522;9.806;2023-04-25T05:37:38;12.80;;;4.40;;
4074;SDS011;2052;53.522;9.806;2023-04-25T05:40:07;11.57;;;4.63;;
4074;SDS011;2052;53.522;9.806;2023-04-25T05:42:34;13.23;;;3.77;;
4074;SDS011;2052;53.522;9.806;2023-04-25T05:45:02;13.13;;;4.30;;
4074;SDS011;2052;53.522;9.806;2023-04-25T05:47:29;16.63;;;4.67;;
4074;SDS011;2052;53.522;9.806;2023-04-25T05:49:56;9.87;;;3.33;;
4074;SDS011;2052;53.522;9.806;2023-04-25T05:52:22;13.70;;;4.10;;
4074;SDS011;2052;53.522;9.806;2023-04-25T05:54:49;12.00;;;4.17;;
4074;SDS011;2052;53.522;9.806;2023-04-25T05:57:21;15.00;;;3.97;;
4074;SDS011;2052;53.522;9.806;2023-04-25T05:59:48;13.13;;;5.10;;
4074;SDS011;2052;53.522;9.806;2023-04-25T06:02:14;21.07;;;5.47;;
4074;SDS011;2052;53.522;9.806;2023-04-25T06:04:41;17.33;;;4.20;;
4074;SDS011;2052;53.522;9.806;2023-04-25T06:07:07;17.23;;;4.83;;
4074;SDS011;2052;53.522;9.806;2023-04-25T06:09:34;25.23;;;5.17;;
4074;SDS011;2052;53.522;9.806;2023-04-25T06:12:01;21.90;;;3.80;;
4074;SDS011;2052;53.522;9.806;2023-04-25T06:14:29;18.27;;;4.80;;
4074;SDS011;2052;53.522;9.806;2023-04-25T06:16:56;9.57;;;3.77;;
4074;SDS011;2052;53.522;9.806;2023-04-25T06:19:22;16.13;;;5.83;;
4074;SDS011;2052;53.522;9.806;2023-04-25T06:21:49;11.47;;;3.80;;
4074;SDS011;2052;53.522;9.806;2023-04-25T06:24:17;9.07;;;3.60;;
4074;SDS011;2052;53.522;9.806;2023-04-25T06:26:44;12.67;;;4.53;;
4074;SDS011;2052;53.522;9.806;2023-04-25T06:29:10;19.77;;;5.00;;
4074;SDS011;2052;53.522;9.806;2023-04-25T06:31:38;13.37;;;4.00;;
4074;SDS011;2052;53.522;9.806;2023-04-25T06:34:05;15.97;;;4.10;;
4074;SDS011;2052;53.522;9.806;2023-04-25T06:36:32;12.03;;;3.67;;
4074;SDS011;2052;53.522;9.806;2023-04-25T06:38:58;8.93;;;3.50;;
4074;SDS011;2052;53.522;9.806;2023-04-25T06:41:26;11.50;;;3.40;;
4074;SDS011;2052;53.522;9.806;2023-04-25T06:43:53;17.83;;;3.70;;
4074;SDS011;2052;53.522;9.806;2023-04-25T06:46:19;11.17;;;3.60;;
4074;SDS011;2052;53.522;9.806;2023-04-25T06:48:47;13.40;;;3.53;;
4074;SDS011;2052;53.522;9.806;2023-04-25T06:51:15;13.53;;;3.73;;
4074;SDS011;2052;53.522;9.806;2023-04-25T06:53:41;9.53;;;3.83;;
4074;SDS011;2052;53.522;9.806;2023-04-25T06:56:08;9.97;;;3.00;;
4074;SDS011;2052;53.522;9.806;2023-04-25T06:58:35;15.93;;;3.30;;
4074;SDS011;2052;53.522;9.806;2023-04-25T07:01:01;20.10;;;4.20;;
4074;SDS011;2052;53.522;9.806;2023-04-25T07:03:28;11.63;;;3.67;;
4074;SDS011;2052;53.522;9.806;2023-04-25T07:05:56;9.70;;;4.37;;
4074;SDS011;2052;53.522;9.806;2023-04-25T07:08:23;15.33;;;3.17;;
4074;SDS011;2052;53.522;9.806;2023-04-25T07:10:50;12.10;;;3.70;;
4074;SDS011;2052;53.522;9.806;2023-04-25T07:13:17;8.03;;;3.70;;
4074;SDS011;2052;53.522;9.806;2023-04-25T07:15:43;14.60;;;4.50;;
4074;SDS011;2052;53.522;9.806;2023-04-25T07:18:10;18.33;;;4.57;;
4074;SDS011;2052;53.522;9.806;2023-04-25T07:20:37;15.63;;;6.97;;
4074;SDS011;2052;53.522;9.806;2023-04-25T07:23:04;7.70;;;3.80;;
4074;SDS011;2052;53.522;9.806;2023-04-25T07:25:31;9.53;;;2.70;;
4074;SDS011;2052;53.522;9.806;2023-04-25T07:27:58;19.87;;;3.83;;
4074;SDS011;2052;53.522;9.806;2023-04-25T07:30:24;12.33;;;3.50;;
4074;SDS011;2052;53.522;9.806;2023-04-25T07:32:51;10.70;;;2.93;;
4074;SDS011;2052;53.522;9.806;2023-04-25T07:35:18;15.63;;;3.83;;
4074;SDS011;2052;53.522;9.806;2023-04-25T07:37:44;12.90;;;3.67;;
4074;SDS011;2052;53.522;9.806;2023-04-25T07:40:12;6.90;;;2.57;;
4074;SDS011;2052;53.522;9.806;2023-04-25T07:42:40;7.43;;;3.00;;
4074;SDS011;2052;53.522;9.806;2023-04-25T07:45:08;7.70;;;3.00;;
4074;SDS011;2052;53.522;9.806;2023-04-25T07:47:35;10.57;;;4.40;;
4074;SDS011;2052;53.522;9.806;2023-04-25T07:50:03;7.80;;;2.13;;
4074;SDS011;2052;53.522;9.806;2023-04-25T07:52:30;5.13;;;2.20;;
4074;SDS011;2052;53.522;9.806;2023-04-25T07:54:57;5.20;;;2.10;;
4074;SDS011;2052;53.522;9.806;2023-04-25T07:57:25;11.67;;;2.50;;
4074;SDS011;2052;53.522;9.806;2023-04-25T07:59:52;5.17;;;2.30;;
4074;SDS011;2052;53.522;9.806;2023-04-25T08:02:18;8.77;;;2.17;;
4074;SDS011;2052;53.522;9.806;2023-04-25T08:04:45;8.07;;;2.23;;
4074;SDS011;2052;53.522;9.806;2023-04-25T08:07:14;6.13;;;2.03;;
4074;SDS011;2052;53.522;9.806;2023-04-25T08:09:41;7.23;;;2.63;;
4074;SDS011;2052;53.522;9.806;2023-04-25T08:12:07;15.37;;;3.40;;
4074;SDS011;2052;53.522;9.806;2023-04-25T08:14:35;8.00;;;2.60;;
4074;SDS011;2052;53.522;9.806;2023-04-25T08:17:04;6.80;;;2.60;;
4074;SDS011;2052;53.522;9.806;2023-04-25T08:19:30;9.33;;;2.30;;
4074;SDS011;2052;53.522;9.806;2023-04-25T08:21:57;4.57;;;2.17;;
4074;SDS011;2052;53.522;9.806;2023-04-25T08:24:23;6.60;;;2.63;;
4074;SDS011;2052;53.522;9.806;2023-04-25T08:26:50;9.73;;;1.90;;
4074;SDS011;2052;53.522;9.806;2023-04-25T08:29:17;6.50;;;2.33;;
4074;SDS011;2052;53.522;9.806;2023-04-25T08:31:45;7.13;;;1.93;;
4074;SDS011;2052;53.522;9.806;2023-04-25T08:34:12;3.70;;;1.70;;
4074;SDS011;2052;53.522;9.806;2023-04-25T08:36:38;5.80;;;2.30;;
4074;SDS011;2052;53.522;9.806;2023-04-25T08:39:05;6.20;;;1.73;;
4074;SDS011;2052;53.522;9.806;2023-04-25T08:41:32;9.60;;;2.13;;
4074;SDS011;2052;53.522;9.806;2023-04-25T08:43:58;8.30;;;2.50;;
4074;SDS011;2052;53.522;9.806;2023-04-25T08:46:25;9.20;;;2.50;;
4074;SDS011;2052;53.522;9.806;2023-04-25T08:48:54;8.00;;;3.10;;
4074;SDS011;2052;53.522;9.806;2023-04-25T08:51:23;11.90;;;5.23;;
4074;SDS011;2052;53.522;9.806;2023-04-25T08:53:51;8.10;;;2.70;;
4074;SDS011;2052;53.522;9.806;2023-04-25T08:56:19;7.03;;;2.17;;
4074;SDS011;2052;53.522;9.806;2023-04-25T08:58:48;2.33;;;1.50;;
4074;SDS011;2052;53.522;9.806;2023-04-25T09:01:16;5.83;;;2.53;;
4074;SDS011;2052;53.522;9.806;2023-04-25T09:03:43;3.57;;;2.03;;
4074;SDS011;2052;53.522;9.806;2023-04-25T09:06:14;7.40;;;2.00;;
4074;SDS011;2052;53.522;9.806;2023-04-25T09:08:42;4.60;;;2.37;;
4074;SDS011;2052;53.522;9.806;2023-04-25T09:11:09;5.80;;;2.23;;
4074;SDS011;2052;53.522;9.806;2023-04-25T09:13:35;4.80;;;2.43;;
4074;SDS011;2052;53.522;9.806;2023-04-25T09:16:02;6.20;;;1.90;;
4074;SDS011;2052;53.522;9.806;2023-04-25T09:18:29;4.57;;;2.40;;
4074;SDS011;2052;53.522;9.806;2023-04-25T09:21:04;12.17;;;2.30;;
4074;SDS011;2052;53.522;9.806;2023-04-25T09:23:38;10.77;;;2.40;;
4074;SDS011;2052;53.522;9.806;2023-04-25T09:26:06;4.20;;;2.40;;
4074;SDS011;2052;53.522;9.806;2023-04-25T09:28:33;6.27;;;2.20;;
4074;SDS011;2052;53.522;9.806;2023-04-25T09:31:00;5.37;;;1.93;;
4074;SDS011;2052;53.522;9.806;2023-04-25T09:33:28;14.07;;;3.30;;
4074;SDS011;2052;53.522;9.806;2023-04-25T09:38:27;6.17;;;1.77;;
4074;SDS011;2052;53.522;9.806;2023-04-25T09:40:58;3.57;;;1.87;;
4074;SDS011;2052;53.522;9.806;2023-04-25T09:43:25;6.80;;;2.47;;
4074;SDS011;2052;53.522;9.806;2023-04-25T09:45:53;9.73;;;2.80;;
4074;SDS011;2052;53.522;9.806;2023-04-25T09:48:22;6.73;;;2.23;;
4074;SDS011;2052;53.522;9.806;2023-04-25T09:51:03;4.00;;;1.80;;
4074;SDS011;2052;53.522;9.806;2023-04-25T09:53:30;9.83;;;1.80;;
4074;SDS011;2052;53.522;9.806;2023-04-25T09:56:00;8.93;;;2.57;;
4074;SDS011;2052;53.522;9.806;2023-04-25T09:58:27;2.83;;;1.93;;
4074;SDS011;2052;53.522;9.806;2023-04-25T10:00:55;8.70;;;2.20;;
4074;SDS011;2052;53.522;9.806;2023-04-25T10:03:26;11.10;;;3.23;;
4074;SDS011;2052;53.522;9.806;2023-04-25T10:05:53;7.27;;;2.77;;
4074;SDS011;2052;53.522;9.806;2023-04-25T10:08:20;7.03;;;2.20;;
4074;SDS011;2052;53.522;9.806;2023-04-25T10:10:48;6.53;;;2.50;;
4074;SDS011;2052;53.522;9.806;2023-04-25T10:13:17;7.77;;;2.67;;
4074;SDS011;2052;53.522;9.806;2023-04-25T10:15:44;7.93;;;2.43;;
4074;SDS011;2052;53.522;9.806;2023-04-25T10:18:12;3.50;;;2.17;;
4074;SDS011;2052;53.522;9.806;2023-04-25T10:20:38;15.70;;;2.30;;
4074;SDS011;2052;53.522;9.806;2023-04-25T10:23:06;7.80;;;2.50;;
4074;SDS011;2052;53.522;9.806;2023-04-25T10:25:38;15.30;;;3.00;;
4074;SDS011;2052;53.522;9.806;2023-04-25T10:28:05;13.90;;;3.10;;
4074;SDS011;2052;53.522;9.806;2023-04-25T10:30:33;9.33;;;2.23;;
4074;SDS011;2052;53.522;9.806;2023-04-25T10:33:00;5.70;;;1.70;;
4074;SDS011;2052;53.522;9.806;2023-04-25T10:35:27;5.57;;;1.43;;
4074;SDS011;2052;53.522;9.806;2023-04-25T10:37:57;4.70;;;1.30;;
4074;SDS011;2052;53.522;9.806;2023-04-25T10:40:24;7.83;;;2.63;;
4074;SDS011;2052;53.522;9.806;2023-04-25T10:42:51;6.40;;;2.43;;
4074;SDS011;2052;53.522;9.806;2023-04-25T10:45:18;10.43;;;2.80;;
4074;SDS011;2052;53.522;9.806;2023-04-25T10:47:46;2.53;;;1.60;;
4074;SDS011;2052;53.522;9.806;2023-04-25T10:50:14;8.20;;;2.27;;
4074;SDS011;2052;53.522;9.806;2023-04-25T10:52:40;6.53;;;2.30;;
4074;SDS011;2052;53.522;9.806;2023-04-25T10:55:07;10.67;;;3.30;;
4074;SDS011;2052;53.522;9.806;2023-04-25T10:57:39;4.80;;;1.90;;
4074;SDS011;2052;53.522;9.806;2023-04-25T11:00:11;4.33;;;1.70;;
4074;SDS011;2052;53.522;9.806;2023-04-25T11:02:43;7.17;;;2.30;;
4074;SDS011;2052;53.522;9.806;2023-04-25T11:05:27;7.60;;;2.27;;
4074;SDS011;2052;53.522;9.806;2023-04-25T11:07:56;5.43;;;2.03;;
4074;SDS011;2052;53.522;9.806;2023-04-25T11:10:25;17.80;;;2.83;;
4074;SDS011;2052;53.522;9.806;2023-04-25T11:12:52;8.43;;;2.43;;
4074;SDS011;2052;53.522;9.806;2023-04-25T11:15:19;8.20;;;1.80;;
4074;SDS011;2052;53.522;9.806;2023-04-25T11:17:47;12.53;;;4.73;;
4074;SDS011;2052;53.522;9.806;2023-04-25T11:20:16;8.57;;;3.60;;
4074;SDS011;2052;53.522;9.806;2023-04-25T11:22:44;8.10;;;4.70;;
4074;SDS011;2052;53.522;9.806;2023-04-25T11:25:11;7.80;;;3.07;;
4074;SDS011;2052;53.522;9.806;2023-04-25T11:27:49;7.43;;;1.90;;
4074;SDS011;2052;53.522;9.806;2023-04-25T11:30:16;4.67;;;1.40;;
4074;SDS011;2052;53.522;9.806;2023-04-25T11:32:43;2.00;;;1.00;;
4074;SDS011;2052;53.522;9.806;2023-04-25T11:35:11;2.57;;;1.20;;
4074;SDS011;2052;53.522;9.806;2023-04-25T11:37:39;2.40;;;1.30;;
4074;SDS011;2052;53.522;9.806;2023-04-25T11:40:06;3.73;;;2.07;;
4074;SDS011;2052;53.522;9.806;2023-04-25T11:42:35;5.13;;;1.57;;
4074;SDS011;2052;53.522;9.806;2023-04-25T11:45:05;2.50;;;1.23;;
4074;SDS011;2052;53.522;9.806;2023-04-25T11:47:33;9.63;;;1.73;;
4074;SDS011;2052;53.522;9.806;2023-04-25T11:49:59;6.40;;;2.20;;
4074;SDS011;2052;53.522;9.806;2023-04-25T11:52:36;5.87;;;2.10;;
4074;SDS011;2052;53.522;9.806;2023-04-25T11:55:04;26.50;;;2.90;;
4074;SDS011;2052;53.522;9.806;2023-04-25T11:57:32;7.37;;;2.47;;
4074;SDS011;2052;53.522;9.806;2023-04-25T12:00:07;9.23;;;2.70;;
4074;SDS011;2052;53.522;9.806;2023-04-25T12:02:36;7.00;;;1.77;;
4074;SDS011;2052;53.522;9.806;2023-04-25T12:05:05;6.60;;;2.23;;
4074;SDS011;2052;53.522;9.806;2023-04-25T12:07:33;8.43;;;1.60;;
4074;SDS011;2052;53.522;9.806;2023-04-25T12:10:05;8.20;;;1.90;;
4074;SDS011;2052;53.522;9.806;2023-04-25T12:12:33;6.50;;;1.90;;
4074;SDS011;2052;53.522;9.806;2023-04-25T12:15:07;4.00;;;1.60;;
4074;SDS011;2052;53.522;9.806;2023-04-25T12:17:36;3.67;;;1.90;;
4074;SDS011;2052;53.522;9.806;2023-04-25T12:20:09;12.30;;;2.10;;
4074;SDS011;2052;53.522;9.806;2023-04-25T12:22:40;7.30;;;1.57;;
4074;SDS011;2052;53.522;9.806;2023-04-25T12:25:11;7.57;;;2.30;;
4074;SDS011;2052;53.522;9.806;2023-04-25T12:27:38;17.63;;;3.57;;
4074;SDS011;2052;53.522;9.806;2023-04-25T12:30:07;5.23;;;2.20;;
4074;SDS011;2052;53.522;9.806;2023-04-25T12:32:34;5.60;;;1.83;;
4074;SDS011;2052;53.522;9.806;2023-04-25T12:35:01;2.90;;;1.70;;
4074;SDS011;2052;53.522;9.806;2023-04-25T12:37:28;4.20;;;1.80;;
4074;SDS011;2052;53.522;9.806;2023-04-25T12:39:55;6.43;;;2.40;;
4074;SDS011;2052;53.522;9.806;2023-04-25T12:42:23;5.27;;;1.70;;
4074;SDS011;2052;53.522;9.806;2023-04-25T12:44:51;6.73;;;2.10;;
4074;SDS011;2052;53.522;9.806;2023-04-25T12:47:18;3.77;;;1.90;;
4074;SDS011;2052;53.522;9.806;2023-04-25T12:49:46;6.83;;;2.53;;
4074;SDS011;2052;53.522;9.806;2023-04-25T12:52:12;8.57;;;2.47;;
4074;SDS011;2052;53.522;9.806;2023-04-25T12:54:39;11.13;;;2.47;;
4074;SDS011;2052;53.522;9.806;2023-04-25T12:57:05;6.17;;;2.00;;
4074;SDS011;2052;53.522;9.806;2023-04-25T12:59:33;10.40;;;3.20;;
4074;SDS011;2052;53.522;9.806;2023-04-25T13:02:00;15.23;;;3.10;;
4074;SDS011;2052;53.522;9.806;2023-04-25T13:04:26;5.20;;;2.53;;
4074;SDS011;2052;53.522;9.806;2023-04-25T13:06:53;10.23;;;3.80;;
4074;SDS011;2052;53.522;9.806;2023-04-25T13:09:20;9.23;;;2.17;;
4074;SDS011;2052;53.522;9.806;2023-04-25T13:11:47;3.47;;;2.40;;
4074;SDS011;2052;53.522;9.806;2023-04-25T13:14:13;12.13;;;2.23;;
4074;SDS011;2052;53.522;9.806;2023-04-25T13:16:42;4.40;;;2.10;;
4074;SDS011;2052;53.522;9.806;2023-04-25T13:19:08;4.33;;;1.70;;
4074;SDS011;2052;53.522;9.806;2023-04-25T13:21:37;6.40;;;2.23;;
4074;SDS011;2052;53.522;9.806;2023-04-25T13:24:04;6.97;;;2.30;;
4074;SDS011;2052;53.522;9.806;2023-04-25T13:26:31;3.87;;;2.00;;
4074;SDS011;2052;53.522;9.806;2023-04-25T13:28:58;7.63;;;2.27;;
4074;SDS011;2052;53.522;9.806;2023-04-25T13:31:25;7.57;;;2.20;;
4074;SDS011;2052;53.522;9.806;2023-04-25T13:33:53;8.20;;;2.40;;
4074;SDS011;2052;53.522;9.806;2023-04-25T13:36:20;5.03;;;2.20;;
4074;SDS011;2052;53.522;9.806;2023-04-25T13:38:46;9.30;;;2.73;;
4074;SDS011;2052;53.522;9.806;2023-04-25T13:41:14;8.10;;;2.10;;
4074;SDS011;2052;53.522;9.806;2023-04-25T13:43:43;8.83;;;2.30;;
4074;SDS011;2052;53.522;9.806;2023-04-25T13:46:11;11.97;;;3.10;;
4074;SDS011;2052;53.522;9.806;2023-04-25T13:48:40;7.07;;;2.30;;
4074;SDS011;2052;53.522;9.806;2023-04-25T13:51:12;6.03;;;2.37;;
4074;SDS011;2052;53.522;9.806;2023-04-25T13:53:40;11.00;;;2.13;;
4074;SDS011;2052;53.522;9.806;2023-04-25T13:56:07;16.50;;;2.87;;
4074;SDS011;2052;53.522;9.806;2023-04-25T13:58:34;4.80;;;2.70;;
4074;SDS011;2052;53.522;9.806;2023-04-25T14:01:04;13.07;;;3.27;;
4074;SDS011;2052;53.522;9.806;2023-04-25T14:03:33;8.63;;;2.20;;
4074;SDS011;2052;53.522;9.806;2023-04-25T14:06:00;5.47;;;2.50;;
4074;SDS011;2052;53.522;9.806;2023-04-25T14:08:28;8.80;;;2.80;;
4074;SDS011;2052;53.522;9.806;2023-04-25T14:10:56;7.97;;;2.13;;
4074;SDS011;2052;53.522;9.806;2023-04-25T14:13:23;10.97;;;2.37;;
4074;SDS011;2052;53.522;9.806;2023-04-25T14:15:49;9.77;;;2.90;;
4074;SDS011;2052;53.522;9.806;2023-04-25T14:18:16;12.23;;;4.27;;
4074;SDS011;2052;53.522;9.806;2023-04-25T14:20:43;13.23;;;3.40;;
4074;SDS011;2052;53.522;9.806;2023-04-25T14:23:10;9.30;;;3.27;;
4074;SDS011;2052;53.522;9.806;2023-04-25T14:25:39;9.60;;;4.17;;
4074;SDS011;2052;53.522;9.806;2023-04-25T14:28:08;3.87;;;2.07;;
4074;SDS011;2052;53.522;9.806;2023-04-25T14:30:35;5.80;;;1.90;;
4074;SDS011;2052;53.522;9.806;2023-04-25T14:33:02;5.73;;;2.30;;
4074;SDS011;2052;53.522;9.806;2023-04-25T14:35:28;7.93;;;2.07;;
4074;SDS011;2052;53.522;9.806;2023-04-25T14:37:55;7.63;;;2.20;;
4074;SDS011;2052;53.522;9.806;2023-04-25T14:40:21;8.80;;;2.13;;
4074;SDS011;2052;53.522;9.806;2023-04-25T14:42:50;3.80;;;2.03;;
4074;SDS011;2052;53.522;9.806;2023-04-25T14:45:20;7.60;;;2.17;;
4074;SDS011;2052;53.522;9.806;2023-04-25T14:47:46;14.33;;;1.93;;
4074;SDS011;2052;53.522;9.806;2023-04-25T14:50:14;5.00;;;2.90;;
4074;SDS011;2052;53.522;9.806;2023-04-25T14:52:41;5.73;;;2.50;;
4074;SDS011;2052;53.522;9.806;2023-04-25T14:55:08;4.80;;;2.00;;
4074;SDS011;2052;53.522;9.806;2023-04-25T14:57:35;12.77;;;3.00;;
4074;SDS011;2052;53.522;9.806;2023-04-25T15:00:06;6.23;;;2.40;;
4074;SDS011;2052;53.522;9.806;2023-04-25T15:02:34;6.07;;;1.83;;
4074;SDS011;2052;53.522;9.806;2023-04-25T15:05:08;11.73;;;2.60;;
4074;SDS011;2052;53.522;9.806;2023-04-25T15:07:34;3.73;;;2.13;;
4074;SDS011;2052;53.522;9.806;2023-04-25T15:10:01;4.40;;;2.40;;
4074;SDS011;2052;53.522;9.806;2023-04-25T15:12:28;4.80;;;2.03;;